sensor_id;sensor_type;location;lat;lon;timestamp;P1;durP1;ratioP1;P2;durP2;ratioP2
46561;SDS011;32289;42.688;23.330;2023-05-10T00:00:38;2.70;;;1.60;;
46561;SDS011;32289;42.688;23.330;2023-05-10T00:04:19;2.38;;;1.20;;
46561;SDS011;32289;42.688;23.330;2023-05-10T00:07:59;3.75;;;1.88;;
46561;SDS011;32289;42.688;23.330;2023-05-10T00:11:40;4.57;;;2.25;;
46561;SDS011;32289;42.688;23.330;2023-05-10T00:15:21;2.95;;;1.98;;
46561;SDS011;32289;42.688;23.330;2023-05-10T00:19:01;3.15;;;2.10;;
46561;SDS011;32289;42.688;23.330;2023-05-10T00:22:42;3.30;;;2.30;;
46561;SDS011;32289;42.688;23.330;2023-05-10T00:26:23;3.33;;;2.10;;
46561;SDS011;32289;42.688;23.330;2023-05-10T00:30:03;2.53;;;1.95;;
46561;SDS011;32289;42.688;23.330;2023-05-10T00:33:44;2.55;;;1.27;;
46561;SDS011;32289;42.688;23.330;2023-05-10T00:37:25;3.50;;;2.13;;
46561;SDS011;32289;42.688;23.330;2023-05-10T00:41:06;3.58;;;2.33;;
46561;SDS011;32289;42.688;23.330;2023-05-10T00:44:46;5.05;;;2.70;;
46561;SDS011;32289;42.688;23.330;2023-05-10T00:48:28;4.30;;;2.55;;
46561;SDS011;32289;42.688;23.330;2023-05-10T00:52:09;8.00;;;3.13;;
46561;SDS011;32289;42.688;23.330;2023-05-10T00:55:50;4.05;;;2.22;;
46561;SDS011;32289;42.688;23.330;2023-05-10T00:59:31;2.05;;;1.45;;
46561;SDS011;32289;42.688;23.330;2023-05-10T01:03:12;5.95;;;1.95;;
46561;SDS011;32289;42.688;23.330;2023-05-10T01:06:53;4.57;;;2.58;;
46561;SDS011;32289;42.688;23.330;2023-05-10T01:10:33;4.03;;;2.47;;
46561;SDS011;32289;42.688;23.330;2023-05-10T01:14:14;4.28;;;2.95;;
46561;SDS011;32289;42.688;23.330;2023-05-10T01:17:57;4.00;;;2.10;;
46561;SDS011;32289;42.688;23.330;2023-05-10T01:37:31;1.65;;;1.33;;
46561;SDS011;32289;42.688;23.330;2023-05-10T01:45:36;2.13;;;1.13;;
46561;SDS011;32289;42.688;23.330;2023-05-10T01:49:23;1.50;;;1.10;;
46561;SDS011;32289;42.688;23.330;2023-05-10T01:53:07;1.90;;;1.25;;
46561;SDS011;32289;42.688;23.330;2023-05-10T01:57:01;2.35;;;1.45;;
46561;SDS011;32289;42.688;23.330;2023-05-10T02:00:46;2.13;;;1.08;;
46561;SDS011;32289;42.688;23.330;2023-05-10T02:04:29;1.38;;;1.27;;
46561;SDS011;32289;42.688;23.330;2023-05-10T02:08:10;2.22;;;1.23;;
46561;SDS011;32289;42.688;23.330;2023-05-10T02:11:53;2.05;;;1.48;;
46561;SDS011;32289;42.688;23.330;2023-05-10T02:15:35;0.82;;;0.60;;
46561;SDS011;32289;42.688;23.330;2023-05-10T02:19:18;4.75;;;1.55;;
46561;SDS011;32289;42.688;23.330;2023-05-10T02:23:01;1.55;;;1.20;;
46561;SDS011;32289;42.688;23.330;2023-05-10T02:26:44;1.27;;;0.93;;
46561;SDS011;32289;42.688;23.330;2023-05-10T02:30:27;1.88;;;1.58;;
46561;SDS011;32289;42.688;23.330;2023-05-10T02:34:10;2.53;;;1.45;;
46561;SDS011;32289;42.688;23.330;2023-05-10T02:37:52;1.73;;;1.40;;
46561;SDS011;32289;42.688;23.330;2023-05-10T02:41:34;2.00;;;1.45;;
46561;SDS011;32289;42.688;23.330;2023-05-10T02:45:17;0.35;;;0.35;;
46561;SDS011;32289;42.688;23.330;2023-05-10T02:49:00;2.55;;;1.23;;
46561;SDS011;32289;42.688;23.330;2023-05-10T02:52:45;1.23;;;1.13;;
46561;SDS011;32289;42.688;23.330;2023-05-10T02:56:31;1.77;;;1.02;;
46561;SDS011;32289;42.688;23.330;2023-05-10T03:00:14;0.77;;;0.60;;
46561;SDS011;32289;42.688;23.330;2023-05-10T03:03:55;1.45;;;1.13;;
46561;SDS011;32289;42.688;23.330;2023-05-10T03:07:35;2.22;;;1.10;;
46561;SDS011;32289;42.688;23.330;2023-05-10T03:23:27;2.38;;;1.15;;
46561;SDS011;32289;42.688;23.330;2023-05-10T03:27:08;1.63;;;1.17;;
46561;SDS011;32289;42.688;23.330;2023-05-10T03:30:50;2.15;;;1.38;;
46561;SDS011;32289;42.688;23.330;2023-05-10T03:34:33;0.68;;;0.68;;
46561;SDS011;32289;42.688;23.330;2023-05-10T03:38:14;1.90;;;1.33;;
46561;SDS011;32289;42.688;23.330;2023-05-10T03:41:55;1.13;;;1.02;;
46561;SDS011;32289;42.688;23.330;2023-05-10T03:45:35;4.05;;;2.05;;
46561;SDS011;32289;42.688;23.330;2023-05-10T03:49:16;1.77;;;1.58;;
46561;SDS011;32289;42.688;23.330;2023-05-10T03:52:57;1.15;;;0.90;;
46561;SDS011;32289;42.688;23.330;2023-05-10T03:56:37;3.05;;;1.23;;
46561;SDS011;32289;42.688;23.330;2023-05-10T04:00:18;1.25;;;0.77;;
46561;SDS011;32289;42.688;23.330;2023-05-10T04:03:59;1.33;;;1.20;;
46561;SDS011;32289;42.688;23.330;2023-05-10T04:07:40;0.98;;;0.85;;
46561;SDS011;32289;42.688;23.330;2023-05-10T04:11:21;1.92;;;1.40;;
46561;SDS011;32289;42.688;23.330;2023-05-10T04:15:02;1.92;;;1.00;;
46561;SDS011;32289;42.688;23.330;2023-05-10T04:18:43;2.60;;;1.83;;
46561;SDS011;32289;42.688;23.330;2023-05-10T04:22:24;1.60;;;1.15;;
46561;SDS011;32289;42.688;23.330;2023-05-10T04:26:05;2.40;;;1.48;;
46561;SDS011;32289;42.688;23.330;2023-05-10T04:29:45;4.40;;;2.30;;
46561;SDS011;32289;42.688;23.330;2023-05-10T04:33:26;3.13;;;1.63;;
46561;SDS011;32289;42.688;23.330;2023-05-10T04:37:07;2.63;;;1.77;;
46561;SDS011;32289;42.688;23.330;2023-05-10T04:40:47;2.30;;;1.42;;
46561;SDS011;32289;42.688;23.330;2023-05-10T04:44:28;3.72;;;2.15;;
46561;SDS011;32289;42.688;23.330;2023-05-10T04:48:09;3.83;;;1.92;;
46561;SDS011;32289;42.688;23.330;2023-05-10T04:51:50;3.28;;;1.75;;
46561;SDS011;32289;42.688;23.330;2023-05-10T04:55:31;2.20;;;1.58;;
46561;SDS011;32289;42.688;23.330;2023-05-10T04:59:12;3.05;;;1.77;;
46561;SDS011;32289;42.688;23.330;2023-05-10T05:02:52;5.65;;;2.25;;
46561;SDS011;32289;42.688;23.330;2023-05-10T05:06:33;4.80;;;2.63;;
46561;SDS011;32289;42.688;23.330;2023-05-10T05:10:14;4.75;;;2.97;;
46561;SDS011;32289;42.688;23.330;2023-05-10T05:13:55;6.75;;;2.63;;
46561;SDS011;32289;42.688;23.330;2023-05-10T05:17:35;4.85;;;2.53;;
46561;SDS011;32289;42.688;23.330;2023-05-10T05:21:16;5.57;;;3.03;;
46561;SDS011;32289;42.688;23.330;2023-05-10T05:24:58;8.63;;;3.80;;
46561;SDS011;32289;42.688;23.330;2023-05-10T05:28:39;2.95;;;1.83;;
46561;SDS011;32289;42.688;23.330;2023-05-10T05:32:19;7.38;;;3.30;;
46561;SDS011;32289;42.688;23.330;2023-05-10T05:36:06;2.72;;;1.92;;
46561;SDS011;32289;42.688;23.330;2023-05-10T05:39:47;10.07;;;3.75;;
46561;SDS011;32289;42.688;23.330;2023-05-10T05:43:28;2.78;;;1.90;;
46561;SDS011;32289;42.688;23.330;2023-05-10T05:47:09;4.22;;;2.35;;
46561;SDS011;32289;42.688;23.330;2023-05-10T05:50:53;3.17;;;1.95;;
46561;SDS011;32289;42.688;23.330;2023-05-10T05:54:35;6.55;;;3.55;;
46561;SDS011;32289;42.688;23.330;2023-05-10T05:58:16;5.82;;;3.00;;
46561;SDS011;32289;42.688;23.330;2023-05-10T06:01:56;5.97;;;3.65;;
46561;SDS011;32289;42.688;23.330;2023-05-10T06:05:37;5.57;;;3.03;;
46561;SDS011;32289;42.688;23.330;2023-05-10T06:09:18;4.68;;;2.65;;
46561;SDS011;32289;42.688;23.330;2023-05-10T06:12:58;6.00;;;3.03;;
46561;SDS011;32289;42.688;23.330;2023-05-10T06:16:39;7.10;;;2.97;;
46561;SDS011;32289;42.688;23.330;2023-05-10T06:20:20;3.70;;;2.53;;
46561;SDS011;32289;42.688;23.330;2023-05-10T06:24:01;4.63;;;2.83;;
46561;SDS011;32289;42.688;23.330;2023-05-10T06:27:42;4.82;;;2.67;;
46561;SDS011;32289;42.688;23.330;2023-05-10T06:31:23;4.55;;;2.67;;
46561;SDS011;32289;42.688;23.330;2023-05-10T06:35:04;7.90;;;2.72;;
46561;SDS011;32289;42.688;23.330;2023-05-10T06:38:45;5.10;;;3.08;;
46561;SDS011;32289;42.688;23.330;2023-05-10T06:42:26;4.05;;;2.75;;
46561;SDS011;32289;42.688;23.330;2023-05-10T06:46:07;7.85;;;3.50;;
46561;SDS011;32289;42.688;23.330;2023-05-10T06:49:48;7.93;;;3.50;;
46561;SDS011;32289;42.688;23.330;2023-05-10T06:53:28;8.18;;;2.72;;
46561;SDS011;32289;42.688;23.330;2023-05-10T06:57:09;5.40;;;2.88;;
46561;SDS011;32289;42.688;23.330;2023-05-10T07:00:50;3.78;;;2.40;;
46561;SDS011;32289;42.688;23.330;2023-05-10T07:04:31;7.40;;;3.35;;
46561;SDS011;32289;42.688;23.330;2023-05-10T07:08:12;5.10;;;2.38;;
46561;SDS011;32289;42.688;23.330;2023-05-10T07:11:53;3.97;;;2.58;;
46561;SDS011;32289;42.688;23.330;2023-05-10T07:15:34;5.55;;;3.22;;
46561;SDS011;32289;42.688;23.330;2023-05-10T07:19:14;7.50;;;2.83;;
46561;SDS011;32289;42.688;23.330;2023-05-10T07:22:55;4.72;;;2.92;;
46561;SDS011;32289;42.688;23.330;2023-05-10T07:26:36;5.30;;;3.00;;
46561;SDS011;32289;42.688;23.330;2023-05-10T07:30:16;8.00;;;3.88;;
46561;SDS011;32289;42.688;23.330;2023-05-10T07:33:57;5.82;;;2.97;;
46561;SDS011;32289;42.688;23.330;2023-05-10T07:37:38;3.95;;;2.50;;
46561;SDS011;32289;42.688;23.330;2023-05-10T07:41:18;5.55;;;2.65;;
46561;SDS011;32289;42.688;23.330;2023-05-10T07:45:00;6.05;;;3.70;;
46561;SDS011;32289;42.688;23.330;2023-05-10T07:48:41;10.57;;;3.80;;
46561;SDS011;32289;42.688;23.330;2023-05-10T07:52:22;5.63;;;3.20;;
46561;SDS011;32289;42.688;23.330;2023-05-10T08:00:11;7.80;;;4.80;;
46561;SDS011;32289;42.688;23.330;2023-05-10T08:03:53;8.00;;;4.43;;
46561;SDS011;32289;42.688;23.330;2023-05-10T08:07:34;5.38;;;3.78;;
46561;SDS011;32289;42.688;23.330;2023-05-10T08:11:15;10.15;;;3.85;;
46561;SDS011;32289;42.688;23.330;2023-05-10T08:14:57;7.03;;;4.07;;
46561;SDS011;32289;42.688;23.330;2023-05-10T08:18:38;9.02;;;4.63;;
46561;SDS011;32289;42.688;23.330;2023-05-10T08:22:19;5.85;;;3.63;;
46561;SDS011;32289;42.688;23.330;2023-05-10T08:26:00;5.88;;;3.67;;
46561;SDS011;32289;42.688;23.330;2023-05-10T08:29:40;8.60;;;3.92;;
46561;SDS011;32289;42.688;23.330;2023-05-10T08:33:21;5.65;;;3.60;;
46561;SDS011;32289;42.688;23.330;2023-05-10T08:37:02;6.30;;;4.13;;
46561;SDS011;32289;42.688;23.330;2023-05-10T08:40:43;5.35;;;3.22;;
46561;SDS011;32289;42.688;23.330;2023-05-10T08:44:24;6.95;;;4.10;;
46561;SDS011;32289;42.688;23.330;2023-05-10T08:48:06;8.55;;;4.72;;
46561;SDS011;32289;42.688;23.330;2023-05-10T08:51:50;6.63;;;3.47;;
46561;SDS011;32289;42.688;23.330;2023-05-10T08:55:35;6.65;;;4.57;;
46561;SDS011;32289;42.688;23.330;2023-05-10T08:59:18;6.28;;;4.35;;
46561;SDS011;32289;42.688;23.330;2023-05-10T09:02:59;9.02;;;4.95;;
46561;SDS011;32289;42.688;23.330;2023-05-10T09:06:40;8.60;;;3.97;;
46561;SDS011;32289;42.688;23.330;2023-05-10T09:10:21;8.68;;;4.00;;
46561;SDS011;32289;42.688;23.330;2023-05-10T09:14:06;7.05;;;4.13;;
46561;SDS011;32289;42.688;23.330;2023-05-10T09:17:48;5.22;;;3.25;;
46561;SDS011;32289;42.688;23.330;2023-05-10T09:21:30;6.82;;;4.00;;
46561;SDS011;32289;42.688;23.330;2023-05-10T09:25:12;13.60;;;5.10;;
46561;SDS011;32289;42.688;23.330;2023-05-10T09:28:55;7.38;;;4.38;;
46561;SDS011;32289;42.688;23.330;2023-05-10T09:32:41;6.60;;;4.40;;
46561;SDS011;32289;42.688;23.330;2023-05-10T09:36:28;14.35;;;4.97;;
46561;SDS011;32289;42.688;23.330;2023-05-10T09:43:59;10.60;;;4.70;;
46561;SDS011;32289;42.688;23.330;2023-05-10T09:47:40;7.82;;;5.15;;
46561;SDS011;32289;42.688;23.330;2023-05-10T09:51:21;7.25;;;4.72;;
46561;SDS011;32289;42.688;23.330;2023-05-10T09:55:03;6.93;;;5.28;;
46561;SDS011;32289;42.688;23.330;2023-05-10T09:58:44;7.05;;;4.50;;
46561;SDS011;32289;42.688;23.330;2023-05-10T10:02:28;10.05;;;4.45;;
46561;SDS011;32289;42.688;23.330;2023-05-10T10:06:09;6.85;;;4.78;;
46561;SDS011;32289;42.688;23.330;2023-05-10T10:09:50;6.40;;;4.80;;
46561;SDS011;32289;42.688;23.330;2023-05-10T10:13:31;11.38;;;4.70;;
46561;SDS011;32289;42.688;23.330;2023-05-10T10:17:12;6.85;;;4.40;;
46561;SDS011;32289;42.688;23.330;2023-05-10T10:20:54;7.28;;;4.28;;
46561;SDS011;32289;42.688;23.330;2023-05-10T10:24:35;7.63;;;4.10;;
46561;SDS011;32289;42.688;23.330;2023-05-10T10:28:21;7.15;;;4.28;;
46561;SDS011;32289;42.688;23.330;2023-05-10T10:36:27;7.07;;;4.13;;
46561;SDS011;32289;42.688;23.330;2023-05-10T10:48:20;4.80;;;3.60;;
46561;SDS011;32289;42.688;23.330;2023-05-10T10:56:05;4.78;;;3.42;;
46561;SDS011;32289;42.688;23.330;2023-05-10T10:59:49;4.40;;;3.20;;
46561;SDS011;32289;42.688;23.330;2023-05-10T11:03:30;5.15;;;3.40;;
46561;SDS011;32289;42.688;23.330;2023-05-10T11:07:16;8.57;;;3.30;;
46561;SDS011;32289;42.688;23.330;2023-05-10T11:14:39;8.13;;;3.67;;
46561;SDS011;32289;42.688;23.330;2023-05-10T11:18:21;6.35;;;3.22;;
46561;SDS011;32289;42.688;23.330;2023-05-10T11:25:45;4.40;;;3.13;;
46561;SDS011;32289;42.688;23.330;2023-05-10T11:29:26;6.78;;;3.58;;
46561;SDS011;32289;42.688;23.330;2023-05-10T11:33:07;7.70;;;3.38;;
46561;SDS011;32289;42.688;23.330;2023-05-10T11:36:50;5.22;;;3.70;;
46561;SDS011;32289;42.688;23.330;2023-05-10T11:40:34;5.57;;;3.25;;
46561;SDS011;32289;42.688;23.330;2023-05-10T11:44:15;4.32;;;3.00;;
46561;SDS011;32289;42.688;23.330;2023-05-10T11:47:56;5.07;;;3.88;;
46561;SDS011;32289;42.688;23.330;2023-05-10T11:51:37;7.88;;;3.50;;
46561;SDS011;32289;42.688;23.330;2023-05-10T11:55:19;5.57;;;2.33;;
46561;SDS011;32289;42.688;23.330;2023-05-10T11:59:00;4.90;;;3.22;;
46561;SDS011;32289;42.688;23.330;2023-05-10T12:02:42;5.68;;;2.88;;
46561;SDS011;32289;42.688;23.330;2023-05-10T12:06:25;5.90;;;3.10;;
46561;SDS011;32289;42.688;23.330;2023-05-10T12:10:12;6.55;;;3.90;;
46561;SDS011;32289;42.688;23.330;2023-05-10T12:13:57;5.85;;;3.90;;
46561;SDS011;32289;42.688;23.330;2023-05-10T12:17:38;7.32;;;3.45;;
46561;SDS011;32289;42.688;23.330;2023-05-10T12:21:20;8.07;;;3.45;;
46561;SDS011;32289;42.688;23.330;2023-05-10T12:25:01;5.60;;;3.42;;
46561;SDS011;32289;42.688;23.330;2023-05-10T12:28:43;7.85;;;3.10;;
46561;SDS011;32289;42.688;23.330;2023-05-10T12:32:36;5.43;;;3.45;;
46561;SDS011;32289;42.688;23.330;2023-05-10T12:36:22;6.10;;;3.92;;
46561;SDS011;32289;42.688;23.330;2023-05-10T12:40:04;7.40;;;3.80;;
46561;SDS011;32289;42.688;23.330;2023-05-10T12:43:47;8.73;;;4.07;;
46561;SDS011;32289;42.688;23.330;2023-05-10T12:47:28;7.13;;;4.35;;
46561;SDS011;32289;42.688;23.330;2023-05-10T12:51:09;7.13;;;3.63;;
46561;SDS011;32289;42.688;23.330;2023-05-10T12:54:52;6.70;;;3.72;;
46561;SDS011;32289;42.688;23.330;2023-05-10T12:58:33;6.65;;;3.38;;
46561;SDS011;32289;42.688;23.330;2023-05-10T13:02:14;8.77;;;2.85;;
46561;SDS011;32289;42.688;23.330;2023-05-10T13:05:57;6.07;;;3.13;;
46561;SDS011;32289;42.688;23.330;2023-05-10T13:09:38;6.43;;;3.60;;
46561;SDS011;32289;42.688;23.330;2023-05-10T13:13:19;6.15;;;3.90;;
46561;SDS011;32289;42.688;23.330;2023-05-10T13:17:00;5.95;;;3.65;;
46561;SDS011;32289;42.688;23.330;2023-05-10T13:20:41;9.88;;;3.40;;
46561;SDS011;32289;42.688;23.330;2023-05-10T13:24:23;8.60;;;3.35;;
46561;SDS011;32289;42.688;23.330;2023-05-10T13:28:03;5.70;;;3.45;;
46561;SDS011;32289;42.688;23.330;2023-05-10T13:31:44;5.25;;;3.67;;
46561;SDS011;32289;42.688;23.330;2023-05-10T13:35:25;4.38;;;3.00;;
46561;SDS011;32289;42.688;23.330;2023-05-10T13:39:06;6.50;;;3.30;;
46561;SDS011;32289;42.688;23.330;2023-05-10T13:42:47;6.95;;;3.47;;
46561;SDS011;32289;42.688;23.330;2023-05-10T13:46:28;11.35;;;3.53;;
46561;SDS011;32289;42.688;23.330;2023-05-10T13:50:09;4.05;;;2.63;;
46561;SDS011;32289;42.688;23.330;2023-05-10T13:53:50;6.00;;;3.72;;
46561;SDS011;32289;42.688;23.330;2023-05-10T13:57:32;6.03;;;3.42;;
46561;SDS011;32289;42.688;23.330;2023-05-10T14:01:14;10.27;;;2.90;;
46561;SDS011;32289;42.688;23.330;2023-05-10T14:04:55;5.45;;;3.10;;
46561;SDS011;32289;42.688;23.330;2023-05-10T14:08:35;5.53;;;3.47;;
46561;SDS011;32289;42.688;23.330;2023-05-10T14:12:16;8.93;;;3.58;;
46561;SDS011;32289;42.688;23.330;2023-05-10T14:15:57;7.53;;;2.72;;
46561;SDS011;32289;42.688;23.330;2023-05-10T14:19:40;5.57;;;3.20;;
46561;SDS011;32289;42.688;23.330;2023-05-10T14:23:21;4.45;;;2.90;;
46561;SDS011;32289;42.688;23.330;2023-05-10T14:27:06;5.47;;;3.58;;
46561;SDS011;32289;42.688;23.330;2023-05-10T14:30:47;6.68;;;3.63;;
46561;SDS011;32289;42.688;23.330;2023-05-10T14:34:27;6.43;;;3.25;;
46561;SDS011;32289;42.688;23.330;2023-05-10T14:38:08;9.23;;;4.20;;
46561;SDS011;32289;42.688;23.330;2023-05-10T14:41:48;6.00;;;3.20;;
46561;SDS011;32289;42.688;23.330;2023-05-10T14:45:31;6.88;;;3.67;;
46561;SDS011;32289;42.688;23.330;2023-05-10T14:49:12;7.68;;;3.90;;
46561;SDS011;32289;42.688;23.330;2023-05-10T14:57:16;4.28;;;2.72;;
46561;SDS011;32289;42.688;23.330;2023-05-10T15:00:57;6.63;;;3.85;;
46561;SDS011;32289;42.688;23.330;2023-05-10T15:04:38;8.85;;;4.38;;
46561;SDS011;32289;42.688;23.330;2023-05-10T15:08:18;5.82;;;3.95;;
46561;SDS011;32289;42.688;23.330;2023-05-10T15:11:59;4.97;;;3.10;;
46561;SDS011;32289;42.688;23.330;2023-05-10T15:15:40;13.38;;;4.00;;
46561;SDS011;32289;42.688;23.330;2023-05-10T15:19:21;6.22;;;3.55;;
46561;SDS011;32289;42.688;23.330;2023-05-10T15:23:02;6.75;;;3.53;;
46561;SDS011;32289;42.688;23.330;2023-05-10T15:26:43;5.68;;;3.35;;
46561;SDS011;32289;42.688;23.330;2023-05-10T15:30:24;7.22;;;4.20;;
46561;SDS011;32289;42.688;23.330;2023-05-10T15:34:04;6.55;;;3.58;;
46561;SDS011;32289;42.688;23.330;2023-05-10T15:37:46;8.18;;;3.47;;
46561;SDS011;32289;42.688;23.330;2023-05-10T15:41:28;6.03;;;3.33;;
46561;SDS011;32289;42.688;23.330;2023-05-10T15:45:09;7.30;;;3.47;;
46561;SDS011;32289;42.688;23.330;2023-05-10T15:48:51;8.50;;;3.55;;
46561;SDS011;32289;42.688;23.330;2023-05-10T15:52:31;6.55;;;3.60;;
46561;SDS011;32289;42.688;23.330;2023-05-10T15:56:12;6.18;;;3.88;;
46561;SDS011;32289;42.688;23.330;2023-05-10T15:59:53;6.32;;;3.25;;
46561;SDS011;32289;42.688;23.330;2023-05-10T16:03:33;7.82;;;3.38;;
46561;SDS011;32289;42.688;23.330;2023-05-10T16:07:14;5.32;;;3.47;;
46561;SDS011;32289;42.688;23.330;2023-05-10T16:10:55;10.48;;;3.55;;
46561;SDS011;32289;42.688;23.330;2023-05-10T16:14:36;7.53;;;3.58;;
46561;SDS011;32289;42.688;23.330;2023-05-10T16:18:17;6.45;;;3.00;;
46561;SDS011;32289;42.688;23.330;2023-05-10T16:21:57;9.40;;;4.30;;
46561;SDS011;32289;42.688;23.330;2023-05-10T16:25:38;6.25;;;3.50;;
46561;SDS011;32289;42.688;23.330;2023-05-10T16:29:19;7.82;;;3.83;;
46561;SDS011;32289;42.688;23.330;2023-05-10T16:32:59;11.13;;;3.95;;
46561;SDS011;32289;42.688;23.330;2023-05-10T16:36:40;6.53;;;3.40;;
46561;SDS011;32289;42.688;23.330;2023-05-10T16:40:21;7.20;;;3.80;;
46561;SDS011;32289;42.688;23.330;2023-05-10T16:44:02;6.00;;;3.25;;
46561;SDS011;32289;42.688;23.330;2023-05-10T16:47:43;6.82;;;3.75;;
46561;SDS011;32289;42.688;23.330;2023-05-10T16:51:24;5.68;;;3.33;;
46561;SDS011;32289;42.688;23.330;2023-05-10T16:55:06;5.22;;;3.70;;
46561;SDS011;32289;42.688;23.330;2023-05-10T16:58:47;5.93;;;3.67;;
46561;SDS011;32289;42.688;23.330;2023-05-10T17:02:30;6.45;;;3.88;;
46561;SDS011;32289;42.688;23.330;2023-05-10T17:06:11;6.40;;;3.75;;
46561;SDS011;32289;42.688;23.330;2023-05-10T17:09:52;9.00;;;3.97;;
46561;SDS011;32289;42.688;23.330;2023-05-10T17:13:33;7.35;;;4.60;;
46561;SDS011;32289;42.688;23.330;2023-05-10T17:17:14;7.30;;;4.38;;
46561;SDS011;32289;42.688;23.330;2023-05-10T17:20:55;5.70;;;3.63;;
46561;SDS011;32289;42.688;23.330;2023-05-10T17:24:35;5.45;;;3.45;;
46561;SDS011;32289;42.688;23.330;2023-05-10T17:28:16;10.85;;;4.00;;
46561;SDS011;32289;42.688;23.330;2023-05-10T17:31:57;5.95;;;4.00;;
46561;SDS011;32289;42.688;23.330;2023-05-10T17:35:38;5.50;;;3.28;;
46561;SDS011;32289;42.688;23.330;2023-05-10T17:39:19;5.40;;;3.00;;
46561;SDS011;32289;42.688;23.330;2023-05-10T17:43:00;6.47;;;4.03;;
46561;SDS011;32289;42.688;23.330;2023-05-10T17:46:41;5.40;;;3.38;;
46561;SDS011;32289;42.688;23.330;2023-05-10T17:50:21;9.48;;;4.00;;
46561;SDS011;32289;42.688;23.330;2023-05-10T17:54:02;5.38;;;3.42;;
46561;SDS011;32289;42.688;23.330;2023-05-10T17:57:43;5.43;;;3.95;;
46561;SDS011;32289;42.688;23.330;2023-05-10T18:01:23;10.35;;;4.07;;
46561;SDS011;32289;42.688;23.330;2023-05-10T18:05:04;5.90;;;3.55;;
46561;SDS011;32289;42.688;23.330;2023-05-10T18:08:45;18.20;;;4.22;;
46561;SDS011;32289;42.688;23.330;2023-05-10T18:12:26;4.57;;;3.33;;
46561;SDS011;32289;42.688;23.330;2023-05-10T18:16:07;6.57;;;3.55;;
46561;SDS011;32289;42.688;23.330;2023-05-10T18:19:51;7.15;;;3.63;;
46561;SDS011;32289;42.688;23.330;2023-05-10T18:23:32;4.93;;;3.03;;
46561;SDS011;32289;42.688;23.330;2023-05-10T18:27:15;5.63;;;3.50;;
46561;SDS011;32289;42.688;23.330;2023-05-10T18:30:56;8.93;;;3.38;;
46561;SDS011;32289;42.688;23.330;2023-05-10T18:34:40;5.78;;;3.33;;
46561;SDS011;32289;42.688;23.330;2023-05-10T18:38:21;7.50;;;3.78;;
46561;SDS011;32289;42.688;23.330;2023-05-10T18:42:02;6.40;;;3.72;;
46561;SDS011;32289;42.688;23.330;2023-05-10T18:45:47;6.38;;;3.70;;
46561;SDS011;32289;42.688;23.330;2023-05-10T18:49:29;4.85;;;3.33;;
46561;SDS011;32289;42.688;23.330;2023-05-10T18:53:11;6.35;;;3.35;;
46561;SDS011;32289;42.688;23.330;2023-05-10T18:56:51;4.93;;;3.22;;
46561;SDS011;32289;42.688;23.330;2023-05-10T19:00:32;7.90;;;4.22;;
46561;SDS011;32289;42.688;23.330;2023-05-10T19:04:13;10.18;;;3.92;;
46561;SDS011;32289;42.688;23.330;2023-05-10T19:07:54;5.25;;;3.03;;
46561;SDS011;32289;42.688;23.330;2023-05-10T19:11:35;7.43;;;3.70;;
46561;SDS011;32289;42.688;23.330;2023-05-10T19:15:16;5.85;;;3.47;;
46561;SDS011;32289;42.688;23.330;2023-05-10T19:18:56;7.68;;;3.85;;
46561;SDS011;32289;42.688;23.330;2023-05-10T19:22:37;5.75;;;4.10;;
46561;SDS011;32289;42.688;23.330;2023-05-10T19:26:18;5.78;;;3.38;;
46561;SDS011;32289;42.688;23.330;2023-05-10T19:29:59;7.30;;;3.83;;
46561;SDS011;32289;42.688;23.330;2023-05-10T19:33:40;6.43;;;3.33;;
46561;SDS011;32289;42.688;23.330;2023-05-10T19:37:21;7.63;;;4.15;;
46561;SDS011;32289;42.688;23.330;2023-05-10T19:41:02;5.15;;;3.50;;
46561;SDS011;32289;42.688;23.330;2023-05-10T19:44:43;6.07;;;3.85;;
46561;SDS011;32289;42.688;23.330;2023-05-10T19:48:23;9.90;;;4.50;;
46561;SDS011;32289;42.688;23.330;2023-05-10T19:52:04;8.30;;;4.20;;
46561;SDS011;32289;42.688;23.330;2023-05-10T19:55:47;9.93;;;4.57;;
46561;SDS011;32289;42.688;23.330;2023-05-10T19:59:28;7.25;;;4.38;;
46561;SDS011;32289;42.688;23.330;2023-05-10T20:03:08;7.18;;;4.15;;
46561;SDS011;32289;42.688;23.330;2023-05-10T20:06:49;8.38;;;4.47;;
46561;SDS011;32289;42.688;23.330;2023-05-10T20:10:30;7.85;;;4.30;;
46561;SDS011;32289;42.688;23.330;2023-05-10T20:14:10;8.40;;;4.45;;
46561;SDS011;32289;42.688;23.330;2023-05-10T20:17:51;7.28;;;4.43;;
46561;SDS011;32289;42.688;23.330;2023-05-10T20:21:33;8.88;;;4.63;;
46561;SDS011;32289;42.688;23.330;2023-05-10T20:25:14;8.38;;;4.43;;
46561;SDS011;32289;42.688;23.330;2023-05-10T20:28:55;11.05;;;4.60;;
46561;SDS011;32289;42.688;23.330;2023-05-10T20:32:36;7.97;;;4.60;;
46561;SDS011;32289;42.688;23.330;2023-05-10T20:36:18;7.78;;;4.47;;
46561;SDS011;32289;42.688;23.330;2023-05-10T20:39:59;7.07;;;4.38;;
46561;SDS011;32289;42.688;23.330;2023-05-10T20:43:40;12.65;;;4.65;;
46561;SDS011;32289;42.688;23.330;2023-05-10T20:47:20;7.15;;;4.47;;
46561;SDS011;32289;42.688;23.330;2023-05-10T20:51:04;6.35;;;3.80;;
46561;SDS011;32289;42.688;23.330;2023-05-10T20:54:48;8.05;;;4.63;;
46561;SDS011;32289;42.688;23.330;2023-05-10T20:58:28;7.70;;;4.63;;
46561;SDS011;32289;42.688;23.330;2023-05-10T21:02:10;9.80;;;4.93;;
46561;SDS011;32289;42.688;23.330;2023-05-10T21:05:50;9.32;;;4.85;;
46561;SDS011;32289;42.688;23.330;2023-05-10T21:09:31;7.07;;;4.55;;
46561;SDS011;32289;42.688;23.330;2023-05-10T21:13:13;11.38;;;5.18;;
46561;SDS011;32289;42.688;23.330;2023-05-10T21:16:54;7.80;;;4.90;;
46561;SDS011;32289;42.688;23.330;2023-05-10T21:20:35;9.13;;;5.43;;
46561;SDS011;32289;42.688;23.330;2023-05-10T21:24:15;7.55;;;4.70;;
46561;SDS011;32289;42.688;23.330;2023-05-10T21:27:56;8.10;;;4.75;;
46561;SDS011;32289;42.688;23.330;2023-05-10T21:31:37;8.60;;;4.18;;
46561;SDS011;32289;42.688;23.330;2023-05-10T21:35:17;8.45;;;4.65;;
46561;SDS011;32289;42.688;23.330;2023-05-10T21:38:59;7.28;;;4.45;;
46561;SDS011;32289;42.688;23.330;2023-05-10T21:42:40;8.65;;;4.75;;
46561;SDS011;32289;42.688;23.330;2023-05-10T21:46:20;9.07;;;4.03;;
46561;SDS011;32289;42.688;23.330;2023-05-10T21:50:01;7.63;;;3.92;;
46561;SDS011;32289;42.688;23.330;2023-05-10T21:53:42;10.20;;;4.38;;
46561;SDS011;32289;42.688;23.330;2023-05-10T21:57:23;12.75;;;4.55;;
46561;SDS011;32289;42.688;23.330;2023-05-10T22:01:04;6.25;;;4.25;;
46561;SDS011;32289;42.688;23.330;2023-05-10T22:04:45;7.88;;;5.05;;
46561;SDS011;32289;42.688;23.330;2023-05-10T22:08:25;9.07;;;4.70;;
46561;SDS011;32289;42.688;23.330;2023-05-10T22:12:06;11.02;;;4.88;;
46561;SDS011;32289;42.688;23.330;2023-05-10T22:15:47;8.55;;;4.07;;
46561;SDS011;32289;42.688;23.330;2023-05-10T22:19:27;8.00;;;5.07;;
46561;SDS011;32289;42.688;23.330;2023-05-10T22:23:08;6.40;;;3.90;;
46561;SDS011;32289;42.688;23.330;2023-05-10T22:26:49;7.05;;;4.13;;
46561;SDS011;32289;42.688;23.330;2023-05-10T22:30:32;9.07;;;4.38;;
46561;SDS011;32289;42.688;23.330;2023-05-10T22:34:13;10.10;;;4.15;;
46561;SDS011;32289;42.688;23.330;2023-05-10T22:37:54;8.52;;;4.60;;
46561;SDS011;32289;42.688;23.330;2023-05-10T22:41:34;10.23;;;4.80;;
46561;SDS011;32289;42.688;23.330;2023-05-10T22:45:15;7.50;;;4.75;;
46561;SDS011;32289;42.688;23.330;2023-05-10T22:48:57;7.43;;;4.90;;
46561;SDS011;32289;42.688;23.330;2023-05-10T22:52:38;6.22;;;3.88;;
46561;SDS011;32289;42.688;23.330;2023-05-10T22:56:19;7.97;;;5.07;;
46561;SDS011;32289;42.688;23.330;2023-05-10T23:00:01;8.38;;;4.55;;